Main page
METAR-TAF:

METAR-TAF

Airports :

Laval - Entrammes airport

Laval, France

latitude: 48-01-56N, longitude: 000-44-34W, elevation: 101 m

Current weather observation

The report was made 38 minutes ago, at 23:30 UTC
Wind 3 kt from the North/Northwest
Temperature 6°C
Humidity 93%
Pressure 1012 hPa
Visibility: 7000 m
Few clouds at a height of 3900 ft
Overcast at a height of 4600 ft

METAR: LFOV 172330Z AUTO 34003KT 7000 FEW039 OVC046 06/05 Q1012

Time: 01:08 (00:08 UTC)


TAF: missing

Weather observations and forecasts of more than 4000 airports (METAR and TAF reports).

The available stations are represented by yellow and red dots on the map.

Hover mouse over dot to see the name of the station.

Then click to see weather observations and forecasts.

To change the map : click on the green buttons with a black cross to zoom in, on the green button with a dash to zoom out, or on the green arrows for adjacent maps.


METAR-TAF: